Time;durP1;ratioP1;P1;durP2;ratioP2;P2;SDS_P1;SDS_P2;PMS_P1;PMS_P2;Temp;Humidity;BMP_temperature;BMP_pressure;BME280_temperature;BME280_humidity;BME280_pressure;Samples;Min_cycle;Max_cycle;Signal;HPM_P1;HPM_P2
2023/04/20 00:00:36;;;;;;;7.07;3.10;;;;;;;3.87;75.97;98630.03;5012685;28;20215;-57
2023/04/20 00:03:04;;;;;;;4.70;3.20;;;;;;;3.73;77.17;98620.66;5009086;28;20224;-55
2023/04/20 00:05:36;;;;;;;6.63;3.50;;;;;;;3.64;78.34;98616.97;5010305;28;20221;-55
2023/04/20 00:08:03;;;;;;;5.30;3.33;;;;;;;3.59;78.33;98611.28;5011409;28;20231;-56
2023/04/20 00:10:56;;;;;;;6.13;3.43;;;;;;;3.59;79.43;98605.31;5010746;28;20242;-56
2023/04/20 00:13:23;;;;;;;5.90;3.60;;;;;;;3.52;79.85;98602.31;5013226;28;20228;-57
2023/04/20 00:15:49;;;;;;;7.63;3.70;;;;;;;3.42;80.55;98598.72;5007091;28;20231;-56
2023/04/20 00:18:18;;;;;;;6.40;3.40;;;;;;;3.44;80.16;98604.59;5005134;28;20322;-56
2023/04/20 00:20:44;;;;;;;9.60;4.00;;;;;;;3.48;78.01;98596.56;5008928;28;20900;-54
2023/04/20 00:23:11;;;;;;;5.77;3.10;;;;;;;3.53;79.13;98593.66;5012117;28;20243;-53
2023/04/20 00:25:37;;;;;;;6.73;3.80;;;;;;;3.50;80.48;98592.13;5013620;28;20759;-53
2023/04/20 00:28:04;;;;;;;6.17;3.63;;;;;;;3.39;79.82;98585.09;5019129;28;20790;-53
2023/04/20 00:30:36;;;;;;;8.03;3.70;;;;;;;3.40;80.71;98580.78;5003069;28;20692;-53
2023/04/20 00:33:04;;;;;;;4.67;3.30;;;;;;;3.36;80.15;98571.63;5014832;28;20228;-52
2023/04/20 00:35:37;;;;;;;4.30;2.80;;;;;;;3.29;79.94;98572.97;5000650;28;20232;-55
2023/04/20 00:38:04;;;;;;;4.97;3.37;;;;;;;3.22;81.56;98565.66;5014905;28;20218;-55
2023/04/20 00:40:36;;;;;;;5.00;3.50;;;;;;;3.31;80.81;98563.38;5023186;28;20270;-54
2023/04/20 00:43:10;;;;;;;5.33;3.90;;;;;;;3.31;80.59;98565.94;5020614;28;20219;-53
2023/04/20 00:45:36;;;;;;;9.07;3.87;;;;;;;3.28;80.33;98561.81;5025402;28;20236;-56
2023/04/20 00:48:03;;;;;;;8.63;3.63;;;;;;;3.31;80.89;98553.03;5017509;28;20223;-56
2023/04/20 00:50:39;;;;;;;6.65;4.10;;;;;;;3.43;80.46;98551.34;5014864;28;20522;-57
2023/04/20 00:53:07;;;;;;;6.60;3.40;;;;;;;3.35;80.51;98546.75;5014511;28;20303;-57
2023/04/20 00:55:37;;;;;;;5.07;3.63;;;;;;;3.28;81.07;98543.75;5088834;22;21983;-60
2023/04/20 00:58:04;;;;;;;6.97;4.07;;;;;;;3.21;80.74;98538.19;5003657;28;20244;-61
2023/04/20 01:00:36;;;;;;;8.77;3.67;;;;;;;3.34;79.76;98539.94;4984384;28;20234;-61
2023/04/20 01:03:03;;;;;;;4.40;3.40;;;;;;;3.26;80.98;98530.13;4994960;28;20725;-61
2023/04/20 01:05:37;;;;;;;6.93;3.87;;;;;;;3.12;82.58;98531.09;5014168;28;20217;-60
2023/04/20 01:08:04;;;;;;;6.67;4.00;;;;;;;3.07;82.62;98528.84;4975970;28;20770;-60
2023/04/20 01:10:36;;;;;;;4.77;3.63;;;;;;;3.01;82.41;98518.94;4985874;28;20290;-62
2023/04/20 01:13:06;;;;;;;5.57;3.27;;;;;;;2.93;82.93;98522.03;4991906;28;20229;-62
2023/04/20 01:15:36;;;;;;;6.27;3.47;;;;;;;2.86;85.00;98520.00;5006028;28;20236;-60
2023/04/20 01:18:04;;;;;;;7.10;3.63;;;;;;;2.78;84.58;98513.59;4988029;28;20234;-60
2023/04/20 01:20:39;;;;;;;6.90;3.60;;;;;;;2.74;84.98;98504.44;5008909;28;20358;-60
2023/04/20 01:23:12;;;;;;;8.67;3.80;;;;;;;2.70;84.62;98500.41;4991130;28;20751;-60
2023/04/20 01:25:40;;;;;;;6.30;3.80;;;;;;;2.65;84.92;98497.31;4999404;28;20346;-60
2023/04/20 01:28:08;;;;;;;8.00;3.77;;;;;;;2.63;85.94;98494.00;5004724;28;20235;-60
2023/04/20 01:30:37;;;;;;;7.40;3.43;;;;;;;2.55;86.07;98491.13;4981032;28;20219;-60
2023/04/20 01:33:04;;;;;;;8.60;4.30;;;;;;;2.46;86.89;98487.44;4989982;28;20771;-60
2023/04/20 01:35:36;;;;;;;7.67;3.73;;;;;;;2.46;87.68;98483.09;5005919;28;20262;-60
2023/04/20 01:38:03;;;;;;;7.43;4.40;;;;;;;2.39;88.81;98479.28;5001714;28;20240;-60
2023/04/20 01:40:56;;;;;;;4.53;3.40;;;;;;;2.33;88.37;98471.94;5001972;28;20227;-60
2023/04/20 01:43:23;;;;;;;7.33;4.03;;;;;;;2.27;89.02;98462.06;5022331;28;20227;-60
2023/04/20 01:45:49;;;;;;;5.13;3.87;;;;;;;2.27;89.48;98464.63;5021227;28;20262;-60
2023/04/20 01:48:16;;;;;;;8.87;4.40;;;;;;;2.33;90.89;98459.91;5003314;28;20242;-60
2023/04/20 01:50:42;;;;;;;8.43;4.10;;;;;;;2.34;91.44;98460.72;5014954;28;20239;-60
2023/04/20 01:53:12;;;;;;;6.13;3.57;;;;;;;2.34;90.81;98458.16;5007763;28;20310;-60
2023/04/20 01:55:40;;;;;;;13.50;4.57;;;;;;;2.39;91.09;98447.53;5009110;28;20703;-60
2023/04/20 01:58:07;;;;;;;8.17;4.50;;;;;;;2.49;89.89;98453.72;5010427;28;20278;-60
2023/04/20 02:00:36;;;;;;;9.47;4.40;;;;;;;2.59;90.83;98446.19;5021967;28;20667;-60
2023/04/20 02:03:03;;;;;;;7.20;4.03;;;;;;;2.58;90.76;98460.00;5007516;28;20275;-60
2023/04/20 02:05:54;;;;;;;5.67;4.00;;;;;;;2.55;89.29;98452.47;5006257;28;20242;-60
2023/04/20 02:08:21;;;;;;;6.47;3.87;;;;;;;2.54;89.39;98448.25;5021422;28;20287;-60
2023/04/20 02:10:47;;;;;;;9.27;4.27;;;;;;;2.34;89.69;98443.53;5005127;28;20234;-60
2023/04/20 02:13:15;;;;;;;4.87;3.87;;;;;;;2.28;89.81;98443.09;5002070;28;20224;-59
2023/04/20 02:15:42;;;;;;;5.47;3.83;;;;;;;2.16;90.61;98440.41;4981748;28;20224;-60
2023/04/20 02:18:11;;;;;;;5.50;3.70;;;;;;;2.15;90.63;98435.38;5007714;28;20235;-60
2023/04/20 02:20:38;;;;;;;6.30;3.93;;;;;;;2.08;92.40;98440.13;4990006;28;20286;-60
2023/04/20 02:23:05;;;;;;;6.57;4.10;;;;;;;1.98;91.36;98433.94;5003586;28;20241;-60
2023/04/20 02:25:36;;;;;;;10.90;5.00;;;;;;;1.89;91.85;98428.47;5009753;28;20223;-60
2023/04/20 02:28:04;;;;;;;5.87;3.73;;;;;;;1.80;91.48;98425.66;4990003;28;20235;-60
2023/04/20 02:30:39;;;;;;;12.00;3.63;;;;;;;1.66;93.26;98432.50;4978521;28;20341;-60
2023/04/20 02:33:06;;;;;;;6.50;3.70;;;;;;;1.54;92.95;98428.19;5002752;28;20220;-60
2023/04/20 02:35:36;;;;;;;6.00;4.10;;;;;;;1.52;92.98;98420.53;5021333;28;20662;-60
2023/04/20 02:38:03;;;;;;;7.27;3.77;;;;;;;1.43;93.38;98413.41;5003404;28;20278;-60
2023/04/20 02:40:55;;;;;;;6.17;3.73;;;;;;;1.39;95.12;98411.97;5006172;28;20704;-60
2023/04/20 02:43:21;;;;;;;6.80;3.87;;;;;;;1.43;97.43;98413.41;5012828;28;20228;-60
2023/04/20 02:45:50;;;;;;;6.10;4.23;;;;;;;1.32;99.01;98407.19;5025342;28;20260;-60
2023/04/20 02:48:20;;;;;;;6.60;4.03;;;;;;;1.32;98.65;98407.19;4994282;28;20297;-60
2023/04/20 02:50:46;;;;;;;11.03;3.90;;;;;;;1.38;99.48;98400.88;4982398;28;20257;-60
2023/04/20 02:53:22;;;;;;;5.40;3.70;;;;;;;1.37;99.97;98396.63;4992036;28;20228;-60
2023/04/20 02:55:55;;;;;;;8.90;4.07;;;;;;;1.27;98.42;98388.66;4982778;28;20234;-60
2023/04/20 02:58:36;;;;;;;7.33;4.90;;;;;;;1.23;99.06;98397.50;4986713;28;20236;-60
2023/04/20 03:01:26;;;;;;;6.60;4.30;;;;;;;1.26;99.55;98394.72;4989673;28;20228;-60
2023/04/20 03:04:00;;;;;;;6.50;4.20;;;;;;;1.21;98.04;98385.69;4987789;28;20221;-60
2023/04/20 03:06:27;;;;;;;6.93;4.10;;;;;;;1.18;98.41;98389.25;4993085;28;20243;-60
2023/04/20 03:08:56;;;;;;;6.20;3.77;;;;;;;1.11;98.58;98382.84;4987793;28;20253;-60
2023/04/20 03:11:41;;;;;;;7.80;3.77;;;;;;;1.07;98.73;98386.53;4987430;28;20267;-60
2023/04/20 03:14:10;;;;;;;7.67;4.57;;;;;;;1.05;100.00;98384.06;4985158;28;20303;-60
2023/04/20 03:16:40;;;;;;;7.80;4.33;;;;;;;1.04;100.00;98385.00;4987084;28;20252;-60
2023/04/20 03:19:07;;;;;;;7.47;4.88;;;;;;;1.05;100.00;98384.06;4974203;28;20448;-60
2023/04/20 03:21:34;;;;;;;5.73;4.03;;;;;;;1.01;100.00;98378.31;4992977;28;20228;-60
2023/04/20 03:24:01;;;;;;;6.93;4.93;;;;;;;0.98;100.00;98377.66;4972934;28;20763;-60
2023/04/20 03:26:28;;;;;;;6.60;4.10;;;;;;;0.94;100.00;98376.19;4988327;28;20228;-60
2023/04/20 03:29:14;;;;;;;7.30;4.17;;;;;;;1.02;100.00;98377.38;4986210;28;20687;-60
2023/04/20 03:31:42;;;;;;;8.17;3.73;;;;;;;1.09;100.00;98385.53;5261441;23;20223;-60
2023/04/20 03:34:10;;;;;;;6.43;4.00;;;;;;;0.98;100.00;98378.50;4999802;28;20232;-60
2023/04/20 03:36:37;;;;;;;7.97;4.27;;;;;;;0.96;100.00;98384.66;5022622;28;20773;-60
2023/04/20 03:39:04;;;;;;;4.77;3.87;;;;;;;0.96;100.00;98382.06;5002632;28;20250;-60
2023/04/20 03:41:31;;;;;;;7.73;4.10;;;;;;;0.97;100.00;98371.72;5012805;28;20334;-60
2023/04/20 03:43:57;;;;;;;6.17;4.30;;;;;;;0.92;100.00;98370.34;5018488;28;20232;-60
2023/04/20 03:46:24;;;;;;;7.57;4.40;;;;;;;0.91;100.00;98368.69;5020435;28;20227;-60
2023/04/20 03:48:52;;;;;;;8.83;5.10;;;;;;;1.02;100.00;98377.38;5017256;28;20220;-60
2023/04/20 03:51:19;;;;;;;6.03;3.77;;;;;;;1.02;99.80;98377.38;5010288;28;20294;-60
2023/04/20 03:53:45;;;;;;;12.60;4.43;;;;;;;0.93;100.00;98372.81;5021268;28;20284;-60
2023/04/20 03:56:13;;;;;;;9.33;4.73;;;;;;;0.88;100.00;98367.97;5013083;28;20232;-60
2023/04/20 03:58:40;;;;;;;9.60;4.43;;;;;;;0.93;100.00;98375.41;5013035;28;20708;-59
2023/04/20 04:01:16;;;;;;;8.87;4.30;;;;;;;0.84;100.00;98375.97;4989387;28;20254;-60
2023/04/20 04:03:47;;;;;;;8.43;5.20;;;;;;;0.83;100.00;98369.19;5008789;28;20228;-60
2023/04/20 04:06:15;;;;;;;7.17;4.23;;;;;;;0.84;100.00;98375.97;5019606;28;20239;-60
2023/04/20 04:08:42;;;;;;;6.80;4.33;;;;;;;0.86;100.00;98367.22;5011648;28;20299;-60
2023/04/20 04:11:08;;;;;;;7.83;4.37;;;;;;;0.79;100.00;98370.28;5008300;28;20224;-60
2023/04/20 04:13:35;;;;;;;6.13;4.47;;;;;;;0.83;100.00;98364.84;5028128;28;20228;-60
2023/04/20 04:16:05;;;;;;;8.10;4.47;;;;;;;0.77;100.00;98367.00;5010748;28;20634;-60
2023/04/20 04:18:32;;;;;;;9.00;4.63;;;;;;;0.71;100.00;98361.31;5008470;28;20220;-60
2023/04/20 04:21:00;;;;;;;6.43;4.60;;;;;;;0.67;100.00;98359.84;5004797;28;20286;-60
2023/04/20 04:23:28;;;;;;;7.40;4.37;;;;;;;0.66;100.00;98363.34;5008972;28;20237;-61
2023/04/20 04:26:05;;;;;;;9.27;4.33;;;;;;;0.68;100.00;98360.66;5012378;28;20303;-60
2023/04/20 04:28:34;;;;;;;9.53;4.50;;;;;;;0.72;100.00;98368.09;5011356;28;20571;-61
2023/04/20 04:31:11;;;;;;;10.00;4.50;;;;;;;0.75;100.00;98363.69;5001043;28;20235;-60
2023/04/20 04:33:38;;;;;;;6.90;4.70;;;;;;;0.77;100.00;98367.00;5001812;28;20313;-61
2023/04/20 04:36:07;;;;;;;9.03;4.80;;;;;;;0.80;100.00;98362.47;5010076;28;20228;-60
2023/04/20 04:38:35;;;;;;;7.00;4.67;;;;;;;0.78;100.00;98361.75;5003726;28;20228;-61
2023/04/20 04:41:02;;;;;;;6.23;4.37;;;;;;;0.76;100.00;98352.50;4991336;28;20709;-60
2023/04/20 04:43:30;;;;;;;6.57;4.63;;;;;;;0.94;100.00;98355.66;5003883;28;20220;-60
2023/04/20 04:46:09;;;;;;;6.97;4.67;;;;;;;0.89;100.00;98355.94;5011104;28;20808;-62
2023/04/20 04:48:36;;;;;;;11.33;4.87;;;;;;;0.95;100.00;98355.56;5011901;28;20752;-61
2023/04/20 04:51:05;;;;;;;10.73;5.67;;;;;;;1.05;100.00;98357.56;5031320;28;20731;-61
2023/04/20 04:53:31;;;;;;;10.07;6.10;;;;;;;1.14;100.00;98354.38;5021925;28;20224;-61
2023/04/20 04:55:59;;;;;;;11.27;6.10;;;;;;;1.22;100.00;98352.13;5030003;28;20228;-61
2023/04/20 04:58:26;;;;;;;11.07;7.53;;;;;;;1.34;100.00;98353.13;5022829;28;20362;-61
2023/04/20 05:00:52;;;;;;;11.37;8.57;;;;;;;1.50;100.00;98346.97;5030635;28;20722;-60
2023/04/20 05:03:19;;;;;;;17.67;9.23;;;;;;;1.64;100.00;98351.22;5032310;28;20240;-61
2023/04/20 05:05:47;;;;;;;19.47;12.50;;;;;;;1.77;100.00;98357.19;5035242;28;20331;-62
2023/04/20 05:08:14;;;;;;;112.17;69.73;;;;;;;1.95;99.30;98357.72;5025459;28;20298;-61
2023/04/20 05:10:41;;;;;;;55.97;35.33;;;;;;;2.10;98.62;98360.19;5021255;28;20220;-60
2023/04/20 05:13:09;;;;;;;28.30;19.03;;;;;;;2.20;97.46;98353.50;5033339;28;20230;-61
2023/04/20 05:15:36;;;;;;;33.57;21.90;;;;;;;2.26;96.73;98355.66;5020856;28;20319;-61
2023/04/20 05:18:07;;;;;;;18.40;9.67;;;;;;;2.33;95.73;98358.63;5012974;28;20228;-61
2023/04/20 05:20:36;;;;;;;16.53;7.53;;;;;;;2.41;96.00;98356.34;5017710;28;20223;-61
2023/04/20 05:23:03;;;;;;;11.97;6.53;;;;;;;2.44;96.01;98357.91;5020084;28;20239;-61
2023/04/20 05:25:55;;;;;;;11.30;5.10;;;;;;;2.59;94.37;98363.72;5024293;28;20235;-61
2023/04/20 05:28:23;;;;;;;9.07;4.80;;;;;;;2.56;96.32;98363.94;5014602;28;20711;-61
2023/04/20 05:30:49;;;;;;;8.37;5.20;;;;;;;2.54;95.67;98364.06;5023328;28;20713;-61
2023/04/20 05:33:16;;;;;;;12.43;5.50;;;;;;;2.53;96.15;98364.16;5033124;28;20625;-61
2023/04/20 05:35:43;;;;;;;8.17;5.27;;;;;;;2.53;96.08;98361.56;5020620;28;20764;-61
2023/04/20 05:38:09;;;;;;;8.73;5.17;;;;;;;2.54;97.85;98356.34;5029627;28;21739;-61
2023/04/20 05:40:36;;;;;;;8.67;5.37;;;;;;;2.56;98.73;98356.22;5021142;28;20228;-61
2023/04/20 05:43:03;;;;;;;7.77;5.40;;;;;;;2.54;99.33;98363.22;5018999;28;20569;-61
2023/04/20 05:45:34;;;;;;;9.13;5.50;;;;;;;2.50;99.73;98366.00;5014682;28;20284;-61
2023/04/20 05:48:01;;;;;;;10.47;5.77;;;;;;;2.54;99.64;98363.22;5010898;28;20229;-61
2023/04/20 05:50:28;;;;;;;7.50;5.33;;;;;;;2.54;99.46;98358.91;5028204;28;20220;-61
2023/04/20 05:52:54;;;;;;;9.63;5.90;;;;;;;2.59;98.54;98354.25;5026211;28;20224;-61
2023/04/20 05:55:21;;;;;;;11.70;5.47;;;;;;;2.61;98.25;98357.56;5011698;28;20767;-61
2023/04/20 05:57:47;;;;;;;10.03;6.37;;;;;;;2.63;98.10;98358.28;5036965;28;20308;-61
2023/04/20 06:00:16;;;;;;;8.60;5.60;;;;;;;2.60;98.35;98362.81;5021240;28;20240;-61
2023/04/20 06:02:44;;;;;;;8.82;6.70;;;;;;;2.70;97.85;98362.97;5020626;28;21008;-60
2023/04/20 06:05:11;;;;;;;11.03;6.33;;;;;;;2.72;98.03;98351.63;5030693;28;20235;-60
2023/04/20 06:07:38;;;;;;;7.27;5.20;;;;;;;2.76;99.29;98354.81;5034268;28;20225;-60
2023/04/20 06:10:07;;;;;;;10.60;5.67;;;;;;;2.78;99.18;98355.53;5022334;28;20231;-59
2023/04/20 06:12:33;;;;;;;9.10;5.70;;;;;;;2.90;99.04;98359.00;5013910;28;20222;-59
2023/04/20 06:15:00;;;;;;;8.10;5.50;;;;;;;2.93;99.17;98356.22;5011719;28;20228;-60
2023/04/20 06:17:27;;;;;;;10.57;6.20;;;;;;;3.01;98.53;98350.50;5022865;28;20220;-59
2023/04/20 06:19:55;;;;;;;10.60;5.83;;;;;;;3.09;98.24;98349.03;5011003;28;20237;-60
2023/04/20 06:22:22;;;;;;;9.80;5.47;;;;;;;3.16;98.07;98339.09;5019933;28;20232;-59
2023/04/20 06:24:48;;;;;;;9.33;6.07;;;;;;;3.21;97.94;98341.31;5005969;28;20234;-60
2023/04/20 06:27:15;;;;;;;9.20;6.00;;;;;;;3.24;96.98;98341.09;5031106;28;20242;-60
2023/04/20 06:29:41;;;;;;;12.47;6.37;;;;;;;3.35;97.04;98342.91;5034017;28;20233;-60
2023/04/20 06:32:08;;;;;;;8.37;5.80;;;;;;;3.44;97.37;98344.00;5026861;28;20737;-60
2023/04/20 06:34:34;;;;;;;7.70;5.50;;;;;;;3.54;97.15;98338.06;5033680;28;20294;-60
2023/04/20 06:37:02;;;;;;;8.30;5.57;;;;;;;3.63;98.02;98341.69;5021223;28;20776;-59
2023/04/20 06:39:29;;;;;;;11.40;6.40;;;;;;;3.81;96.65;98336.91;5022354;28;20626;-60
2023/04/20 06:41:56;;;;;;;8.33;5.57;;;;;;;3.98;97.00;98337.41;5009939;28;20256;-60
2023/04/20 06:44:22;;;;;;;7.27;4.90;;;;;;;4.17;95.34;98341.19;5016601;28;20239;-60
2023/04/20 06:46:49;;;;;;;10.17;5.83;;;;;;;4.43;92.59;98331.44;5016349;28;20285;-60
2023/04/20 06:49:15;;;;;;;9.17;5.97;;;;;;;4.57;92.23;98323.41;5011333;28;20257;-60
2023/04/20 06:51:42;;;;;;;6.93;5.00;;;;;;;4.91;86.76;98325.09;5014240;28;20316;-60
2023/04/20 06:54:10;;;;;;;8.93;4.83;;;;;;;5.14;89.44;98325.03;5011972;28;20633;-60
2023/04/20 06:56:37;;;;;;;10.13;4.57;;;;;;;5.28;87.42;98319.56;5013329;28;20225;-60
2023/04/20 06:59:03;;;;;;;12.43;4.73;;;;;;;5.40;87.16;98327.28;5011254;28;20224;-60
2023/04/20 07:01:30;;;;;;;7.07;4.37;;;;;;;5.59;83.32;98324.81;5015914;28;20234;-59
2023/04/20 07:03:57;;;;;;;10.47;5.03;;;;;;;5.86;77.83;98320.88;5014644;28;20313;-61
2023/04/20 07:06:24;;;;;;;6.93;4.83;;;;;;;5.99;82.70;98322.44;5014293;28;20580;-60
2023/04/20 07:08:50;;;;;;;11.40;5.33;;;;;;;6.16;76.35;98321.88;5009549;28;20216;-62
2023/04/20 07:11:18;;;;;;;12.57;5.90;;;;;;;6.45;73.33;98328.09;5012093;28;20302;-61
2023/04/20 07:13:45;;;;;;;9.73;5.33;;;;;;;6.59;72.58;98326.94;5012773;28;20228;-61
2023/04/20 07:16:13;;;;;;;13.13;4.40;;;;;;;6.71;71.32;98325.03;5010922;28;20287;-61
2023/04/20 07:18:39;;;;;;;7.23;4.50;;;;;;;6.83;71.80;98316.19;5012480;28;20225;-60
2023/04/20 07:21:06;;;;;;;12.43;5.40;;;;;;;6.94;71.78;98316.06;5010515;28;20241;-61
2023/04/20 07:23:32;;;;;;;8.97;5.23;;;;;;;7.13;73.98;98318.78;5013506;28;20220;-61
2023/04/20 07:25:59;;;;;;;7.47;5.37;;;;;;;7.05;76.12;98317.69;5010854;28;20224;-61
2023/04/20 07:28:27;;;;;;;9.73;6.37;;;;;;;7.01;76.73;98318.13;5016366;28;20228;-61
2023/04/20 07:30:53;;;;;;;14.30;5.97;;;;;;;7.14;75.54;98310.88;5011694;28;20242;-60
2023/04/20 07:33:20;;;;;;;11.17;6.60;;;;;;;7.15;74.19;98314.28;5010553;28;20239;-59
2023/04/20 07:35:47;;;;;;;10.27;5.67;;;;;;;7.21;74.18;98311.16;5012261;28;20228;-58
2023/04/20 07:38:13;;;;;;;9.80;5.63;;;;;;;7.30;75.12;98312.94;5011463;28;20236;-60
2023/04/20 07:40:40;;;;;;;8.17;5.60;;;;;;;7.39;75.61;98304.31;5026110;28;20301;-59
2023/04/20 07:43:06;;;;;;;9.57;4.93;;;;;;;7.60;70.07;98302.50;5010758;28;20275;-59
2023/04/20 07:45:41;;;;;;;10.10;4.67;;;;;;;7.83;70.10;98311.59;5010069;28;20236;-58
2023/04/20 07:48:11;;;;;;;7.63;4.70;;;;;;;7.85;68.05;98308.88;5014617;28;20314;-59
2023/04/20 07:50:37;;;;;;;7.63;5.30;;;;;;;7.89;66.98;98312.00;5013368;28;20221;-60
2023/04/20 07:53:04;;;;;;;6.90;5.00;;;;;;;7.92;65.77;98311.72;5009502;28;20219;-59
2023/04/20 07:55:36;;;;;;;7.70;4.97;;;;;;;8.04;66.13;98312.34;5015634;28;20226;-60
2023/04/20 07:58:03;;;;;;;11.50;4.80;;;;;;;8.19;65.91;98312.72;5011991;28;20228;-60
2023/04/20 08:00:57;;;;;;;6.37;4.40;;;;;;;8.31;64.46;98308.16;5010785;28;20235;-58
2023/04/20 08:03:26;;;;;;;9.20;4.90;;;;;;;8.43;65.19;98301.78;5013076;28;20574;-59
2023/04/20 08:05:52;;;;;;;9.20;4.63;;;;;;;8.57;63.40;98303.94;5012497;28;20282;-58
2023/04/20 08:08:19;;;;;;;7.40;4.60;;;;;;;8.63;62.87;98299.13;5012436;28;20236;-60
2023/04/20 08:10:45;;;;;;;9.30;5.03;;;;;;;8.62;62.62;98295.69;5013541;28;20356;-59
2023/04/20 08:13:12;;;;;;;5.67;4.60;;;;;;;8.59;62.44;98302.97;5009018;28;20255;-60
2023/04/20 08:15:38;;;;;;;8.63;5.17;;;;;;;8.61;61.66;98301.84;5013611;28;20760;-60
2023/04/20 08:18:06;;;;;;;7.20;4.53;;;;;;;8.61;61.47;98301.84;5011199;28;20423;-59
2023/04/20 08:20:37;;;;;;;9.13;5.00;;;;;;;8.54;61.62;98298.19;5010439;28;20220;-60
2023/04/20 08:23:03;;;;;;;7.57;4.27;;;;;;;8.51;63.18;98296.72;5008648;28;20236;-60
2023/04/20 08:25:38;;;;;;;7.17;4.70;;;;;;;8.42;63.63;98298.38;5013254;28;20224;-60
2023/04/20 08:28:05;;;;;;;9.67;5.00;;;;;;;8.44;64.09;98306.03;5017175;28;20239;-60
2023/04/20 08:30:39;;;;;;;9.27;5.60;;;;;;;8.37;63.54;98299.78;5020581;28;20216;-60
2023/04/20 08:33:07;;;;;;;8.43;4.60;;;;;;;8.38;63.39;98296.22;5020297;28;20672;-60
2023/04/20 08:35:36;;;;;;;5.97;4.30;;;;;;;8.59;65.60;98298.56;5016274;28;20231;-58
2023/04/20 08:38:03;;;;;;;7.03;4.50;;;;;;;8.67;62.51;98297.88;5017405;28;20228;-58
2023/04/20 08:40:54;;;;;;;7.63;4.53;;;;;;;8.91;63.30;98292.06;5011730;28;20236;-58
2023/04/20 08:43:21;;;;;;;8.60;4.17;;;;;;;9.00;61.86;98292.97;5020518;28;20225;-58
2023/04/20 08:45:49;;;;;;;9.27;4.83;;;;;;;9.00;61.06;98296.38;5019232;28;20224;-58
2023/04/20 08:48:20;;;;;;;5.70;4.47;;;;;;;9.19;60.54;98286.78;5021265;28;20231;-57
2023/04/20 08:50:47;;;;;;;6.03;3.93;;;;;;;9.20;59.72;98287.59;5015416;28;21126;-58
2023/04/20 08:53:14;;;;;;;7.77;4.40;;;;;;;9.24;59.36;98281.94;5012383;28;20608;-59
2023/04/20 08:55:40;;;;;;;6.57;4.23;;;;;;;9.38;58.42;98282.38;5016125;28;20221;-58
2023/04/20 08:58:07;;;;;;;7.73;4.40;;;;;;;9.66;57.74;98290.88;5022282;28;20236;-57
2023/04/20 09:00:46;;;;;;;12.40;6.00;;;;;;;9.58;56.71;98289.00;5019966;28;20217;-58
2023/04/20 09:03:12;;;;;;;6.40;4.33;;;;;;;9.60;55.51;98287.06;5024269;28;20281;-60
2023/04/20 09:05:40;;;;;;;10.23;5.00;;;;;;;10.15;56.45;98284.28;5022915;28;20224;-58
2023/04/20 09:08:07;;;;;;;8.50;4.80;;;;;;;10.55;54.44;98279.41;5013390;28;20694;-58
2023/04/20 09:10:41;;;;;;;6.80;4.10;;;;;;;10.42;54.42;98280.66;5015032;28;20217;-56
2023/04/20 09:13:08;;;;;;;6.27;4.53;;;;;;;10.53;54.77;98276.13;5012772;28;20240;-58
2023/04/20 09:15:36;;;;;;;6.50;4.27;;;;;;;10.21;58.04;98278.44;5011134;28;20228;-57
2023/04/20 09:18:14;;;;;;;9.67;5.63;;;;;;;10.36;58.95;98275.22;5029022;28;20236;-58
2023/04/20 09:20:42;;;;;;;9.07;6.13;;;;;;;10.37;59.62;98276.84;5022195;28;20528;-58
2023/04/20 09:23:12;;;;;;;8.90;5.37;;;;;;;10.27;60.20;98277.78;5023617;28;20284;-58
2023/04/20 09:25:39;;;;;;;10.57;5.63;;;;;;;10.21;60.35;98277.63;5015052;28;20229;-58
2023/04/20 09:28:07;;;;;;;10.07;6.30;;;;;;;9.94;62.29;98269.84;5029754;28;20220;-58
2023/04/20 09:30:38;;;;;;;8.00;5.53;;;;;;;10.13;60.55;98273.16;5015405;28;20221;-58
2023/04/20 09:33:06;;;;;;;10.00;6.40;;;;;;;10.07;60.27;98266.00;5012746;28;20565;-59
2023/04/20 09:35:38;;;;;;;10.03;6.13;;;;;;;10.21;60.57;98259.38;5024775;28;20232;-58
2023/04/20 09:38:06;;;;;;;10.43;5.83;;;;;;;10.66;60.09;98260.81;5030360;28;20638;-58
2023/04/20 09:40:37;;;;;;;48.00;21.07;;;;;;;10.57;58.17;98256.56;5022269;28;20236;-59
2023/04/20 09:43:07;;;;;;;8.53;4.73;;;;;;;10.81;55.65;98258.41;5012997;28;20229;-57
2023/04/20 09:45:38;;;;;;;14.30;6.73;;;;;;;10.78;55.74;98250.88;5031829;28;20937;-58
2023/04/20 09:48:06;;;;;;;7.33;4.17;;;;;;;11.04;52.69;98255.97;5028599;28;20234;-58
2023/04/20 09:50:37;;;;;;;16.77;8.00;;;;;;;10.59;52.12;98262.44;5020649;28;20232;-57
2023/04/20 09:53:06;;;;;;;6.50;4.13;;;;;;;10.78;51.35;98248.28;5020190;28;20797;-59
2023/04/20 09:55:37;;;;;;;8.60;5.20;;;;;;;10.51;53.21;98254.59;5012955;28;20543;-57
2023/04/20 09:58:05;;;;;;;15.07;8.03;;;;;;;10.69;52.76;98255.25;5013693;28;20221;-58
2023/04/20 10:00:37;;;;;;;34.20;16.87;;;;;;;10.69;51.97;98257.06;5018300;28;20304;-58
2023/04/20 10:03:05;;;;;;;8.93;7.27;;;;;;;10.78;51.76;98250.88;5008205;28;20284;-58
2023/04/20 10:05:38;;;;;;;7.93;7.00;;;;;;;10.60;52.50;98244.00;5028168;28;20227;-58
2023/04/20 10:08:06;;;;;;;10.10;5.47;;;;;;;10.65;53.04;98248.72;5020520;28;20230;-58
2023/04/20 10:10:44;;;;;;;5.10;3.70;;;;;;;11.37;50.70;98245.50;5020403;28;20266;-57
2023/04/20 10:13:11;;;;;;;6.13;4.13;;;;;;;11.48;49.57;98241.72;5013747;28;20293;-59
2023/04/20 10:15:38;;;;;;;5.73;4.20;;;;;;;11.30;49.81;98246.31;5028707;28;20580;-59
2023/04/20 10:18:19;;;;;;;5.60;3.90;;;;;;;10.90;49.22;98238.31;5014469;28;20266;-59
2023/04/20 10:20:46;;;;;;;7.70;4.67;;;;;;;11.20;49.72;98239.47;5019081;28;20268;-59
2023/04/20 10:23:15;;;;;;;5.80;4.43;;;;;;;11.29;50.46;98240.28;5019939;28;20230;-59
2023/04/20 10:25:44;;;;;;;6.73;4.40;;;;;;;11.52;50.69;98243.03;5012596;28;20209;-58
2023/04/20 10:28:10;;;;;;;7.77;4.63;;;;;;;11.76;51.65;98241.34;5020782;28;20234;-59
2023/04/20 10:30:38;;;;;;;5.90;4.27;;;;;;;12.02;51.10;98231.63;5011697;28;20747;-59
2023/04/20 10:33:06;;;;;;;7.80;5.03;;;;;;;12.38;48.88;98239.00;5014083;28;20222;-58
2023/04/20 10:35:46;;;;;;;5.90;4.00;;;;;;;12.60;47.68;98239.19;5029760;28;20750;-59
2023/04/20 10:38:15;;;;;;;6.17;4.30;;;;;;;11.71;49.60;98234.97;5019595;28;20296;-59
2023/04/20 10:40:42;;;;;;;6.17;3.80;;;;;;;11.90;50.16;98242.44;5022584;28;20223;-59
2023/04/20 10:43:19;;;;;;;5.63;4.20;;;;;;;12.02;50.68;98258.63;5013895;28;20235;-59
2023/04/20 10:45:46;;;;;;;7.87;4.63;;;;;;;11.63;52.00;98254.09;5021736;28;20223;-58
2023/04/20 10:48:13;;;;;;;6.60;4.47;;;;;;;11.93;52.08;98255.16;5030580;28;20718;-59
2023/04/20 10:50:39;;;;;;;8.57;4.20;;;;;;;10.91;54.40;98247.78;5016662;28;20249;-59
2023/04/20 10:53:16;;;;;;;5.40;3.93;;;;;;;11.29;57.18;98260.34;5013186;28;20226;-59
2023/04/20 10:55:44;;;;;;;6.07;4.13;;;;;;;11.50;57.37;98271.13;5011447;28;20850;-59
2023/04/20 10:58:21;;;;;;;6.03;4.50;;;;;;;11.28;59.90;98261.34;5015700;28;20242;-59
2023/04/20 11:00:57;;;;;;;8.03;6.90;;;;;;;11.02;61.66;98273.59;5026364;28;20603;-58
2023/04/20 11:03:25;;;;;;;6.90;4.03;;;;;;;10.47;62.38;98274.97;5026323;28;20212;-59
2023/04/20 11:05:51;;;;;;;5.47;3.40;;;;;;;9.83;64.32;98262.31;5024257;28;20313;-58
2023/04/20 11:08:18;;;;;;;5.53;3.60;;;;;;;9.87;67.16;98261.03;5021218;28;20228;-58
2023/04/20 11:10:46;;;;;;;4.30;3.60;;;;;;;9.96;65.07;98265.31;5021080;28;20279;-59
2023/04/20 11:13:21;;;;;;;4.93;3.57;;;;;;;10.29;68.04;98251.56;5031701;28;20316;-59
2023/04/20 11:15:47;;;;;;;5.50;3.77;;;;;;;9.98;68.68;98241.66;5028266;28;20224;-59
2023/04/20 11:18:14;;;;;;;4.70;3.80;;;;;;;10.92;65.91;98238.97;5032216;28;20259;-59
2023/04/20 11:20:50;;;;;;;6.47;3.70;;;;;;;11.62;60.68;98245.47;5027514;28;20738;-59
2023/04/20 11:23:19;;;;;;;6.67;3.83;;;;;;;11.06;61.58;98235.72;5013018;28;20295;-59
2023/04/20 11:25:51;;;;;;;7.47;4.87;;;;;;;11.57;59.73;98228.63;5014247;28;20226;-60
2023/04/20 11:28:18;;;;;;;8.03;4.90;;;;;;;11.47;59.25;98227.03;5012119;28;20225;-59
2023/04/20 11:30:45;;;;;;;15.80;7.40;;;;;;;11.16;61.53;98219.88;5015370;28;20353;-60
2023/04/20 11:33:12;;;;;;;7.57;5.20;;;;;;;10.97;61.09;98233.28;5012164;28;20238;-59
2023/04/20 11:35:40;;;;;;;10.23;6.50;;;;;;;10.61;61.50;98223.94;5011904;28;20236;-59
2023/04/20 11:38:07;;;;;;;5.53;4.23;;;;;;;10.48;62.08;98225.25;5008947;28;20253;-58
2023/04/20 11:40:36;;;;;;;8.23;4.97;;;;;;;10.99;62.00;98229.50;5012512;28;20242;-59
2023/04/20 11:43:04;;;;;;;5.77;4.67;;;;;;;11.63;59.09;98220.97;5009768;28;20320;-59
2023/04/20 11:45:36;;;;;;;5.47;4.63;;;;;;;10.77;59.90;98221.34;5009811;28;20217;-59